sensor_id;sensor_type;location;lat;lon;timestamp;P1;durP1;ratioP1;P2;durP2;ratioP2
59089;SDS011;44878;50.102;18.982;2023-02-26T00:01:41;15.30;;;13.90;;
59089;SDS011;44878;50.102;18.982;2023-02-26T00:04:08;15.77;;;14.37;;
59089;SDS011;44878;50.102;18.982;2023-02-26T00:06:35;16.30;;;14.80;;
59089;SDS011;44878;50.102;18.982;2023-02-26T00:09:02;15.77;;;14.38;;
59089;SDS011;44878;50.102;18.982;2023-02-26T00:11:29;17.55;;;15.85;;
59089;SDS011;44878;50.102;18.982;2023-02-26T00:13:55;15.27;;;13.87;;
59089;SDS011;44878;50.102;18.982;2023-02-26T00:16:31;14.70;;;13.37;;
59089;SDS011;44878;50.102;18.982;2023-02-26T00:18:58;16.10;;;14.50;;
59089;SDS011;44878;50.102;18.982;2023-02-26T00:21:25;15.32;;;13.90;;
59089;SDS011;44878;50.102;18.982;2023-02-26T00:23:52;14.75;;;13.32;;
59089;SDS011;44878;50.102;18.982;2023-02-26T00:26:18;16.10;;;14.47;;
59089;SDS011;44878;50.102;18.982;2023-02-26T00:28:44;14.90;;;13.40;;
59089;SDS011;44878;50.102;18.982;2023-02-26T00:31:10;13.67;;;11.50;;
59089;SDS011;44878;50.102;18.982;2023-02-26T00:33:36;13.80;;;12.50;;
59089;SDS011;44878;50.102;18.982;2023-02-26T00:36:07;14.77;;;13.23;;
59089;SDS011;44878;50.102;18.982;2023-02-26T00:38:37;15.20;;;13.70;;
59089;SDS011;44878;50.102;18.982;2023-02-26T00:41:04;15.07;;;13.57;;
59089;SDS011;44878;50.102;18.982;2023-02-26T00:43:30;15.33;;;13.80;;
59089;SDS011;44878;50.102;18.982;2023-02-26T00:51:12;17.00;;;15.37;;
59089;SDS011;44878;50.102;18.982;2023-02-26T00:53:43;16.63;;;15.03;;
59089;SDS011;44878;50.102;18.982;2023-02-26T00:56:12;19.07;;;17.27;;
59089;SDS011;44878;50.102;18.982;2023-02-26T00:58:38;17.85;;;16.05;;
59089;SDS011;44878;50.102;18.982;2023-02-26T01:01:03;18.30;;;16.60;;
59089;SDS011;44878;50.102;18.982;2023-02-26T01:03:30;17.63;;;15.93;;
59089;SDS011;44878;50.102;18.982;2023-02-26T01:05:56;17.73;;;16.07;;
59089;SDS011;44878;50.102;18.982;2023-02-26T01:08:28;19.10;;;17.50;;
59089;SDS011;44878;50.102;18.982;2023-02-26T01:10:56;18.07;;;16.43;;
59089;SDS011;44878;50.102;18.982;2023-02-26T01:13:22;19.00;;;17.20;;
59089;SDS011;44878;50.102;18.982;2023-02-26T01:15:49;15.73;;;14.23;;
59089;SDS011;44878;50.102;18.982;2023-02-26T01:18:18;14.87;;;13.43;;
59089;SDS011;44878;50.102;18.982;2023-02-26T01:20:53;15.97;;;14.47;;
59089;SDS011;44878;50.102;18.982;2023-02-26T01:23:22;14.57;;;13.17;;
59089;SDS011;44878;50.102;18.982;2023-02-26T01:25:59;15.57;;;14.07;;
59089;SDS011;44878;50.102;18.982;2023-02-26T01:28:27;15.60;;;14.20;;
59089;SDS011;44878;50.102;18.982;2023-02-26T01:30:53;16.33;;;14.53;;
59089;SDS011;44878;50.102;18.982;2023-02-26T01:35:53;15.77;;;14.37;;
59089;SDS011;44878;50.102;18.982;2023-02-26T01:38:41;16.07;;;14.40;;
59089;SDS011;44878;50.102;18.982;2023-02-26T01:43:45;14.77;;;13.27;;
59089;SDS011;44878;50.102;18.982;2023-02-26T01:51:10;15.37;;;13.90;;
59089;SDS011;44878;50.102;18.982;2023-02-26T01:53:36;15.40;;;13.87;;
59089;SDS011;44878;50.102;18.982;2023-02-26T01:56:03;14.90;;;13.50;;
59089;SDS011;44878;50.102;18.982;2023-02-26T01:58:33;14.43;;;13.13;;
59089;SDS011;44878;50.102;18.982;2023-02-26T02:00:59;14.20;;;12.77;;
59089;SDS011;44878;50.102;18.982;2023-02-26T02:03:26;13.77;;;12.47;;
59089;SDS011;44878;50.102;18.982;2023-02-26T02:05:55;14.70;;;13.30;;
59089;SDS011;44878;50.102;18.982;2023-02-26T02:08:22;14.23;;;12.83;;
59089;SDS011;44878;50.102;18.982;2023-02-26T02:10:48;14.70;;;13.20;;
59089;SDS011;44878;50.102;18.982;2023-02-26T02:13:27;13.77;;;12.38;;
59089;SDS011;44878;50.102;18.982;2023-02-26T02:23:49;14.27;;;12.90;;
59089;SDS011;44878;50.102;18.982;2023-02-26T02:26:27;15.63;;;14.13;;
59089;SDS011;44878;50.102;18.982;2023-02-26T02:29:08;14.37;;;12.87;;
59089;SDS011;44878;50.102;18.982;2023-02-26T02:31:42;13.43;;;12.13;;
59089;SDS011;44878;50.102;18.982;2023-02-26T02:34:20;15.67;;;14.17;;
59089;SDS011;44878;50.102;18.982;2023-02-26T02:36:50;13.77;;;12.37;;
59089;SDS011;44878;50.102;18.982;2023-02-26T02:39:19;14.77;;;13.37;;
59089;SDS011;44878;50.102;18.982;2023-02-26T02:41:48;17.67;;;16.03;;
59089;SDS011;44878;50.102;18.982;2023-02-26T02:44:16;16.70;;;15.10;;
59089;SDS011;44878;50.102;18.982;2023-02-26T02:46:44;15.02;;;13.55;;
59089;SDS011;44878;50.102;18.982;2023-02-26T02:49:15;17.25;;;15.70;;
59089;SDS011;44878;50.102;18.982;2023-02-26T02:51:47;17.27;;;15.67;;
59089;SDS011;44878;50.102;18.982;2023-02-26T02:57:21;20.67;;;18.77;;
59089;SDS011;44878;50.102;18.982;2023-02-26T02:59:48;16.75;;;15.05;;
59089;SDS011;44878;50.102;18.982;2023-02-26T03:02:32;15.50;;;14.00;;
59089;SDS011;44878;50.102;18.982;2023-02-26T03:05:01;14.47;;;12.93;;
59089;SDS011;44878;50.102;18.982;2023-02-26T03:07:28;13.93;;;12.43;;
59089;SDS011;44878;50.102;18.982;2023-02-26T03:09:55;13.60;;;12.20;;
59089;SDS011;44878;50.102;18.982;2023-02-26T03:12:21;13.23;;;11.93;;
59089;SDS011;44878;50.102;18.982;2023-02-26T03:14:47;14.30;;;12.87;;
59089;SDS011;44878;50.102;18.982;2023-02-26T03:22:19;13.07;;;11.73;;
59089;SDS011;44878;50.102;18.982;2023-02-26T03:24:53;11.68;;;10.57;;
59089;SDS011;44878;50.102;18.982;2023-02-26T03:27:23;12.97;;;11.77;;
59089;SDS011;44878;50.102;18.982;2023-02-26T03:30:13;12.70;;;11.13;;
59089;SDS011;44878;50.102;18.982;2023-02-26T03:35:16;13.10;;;11.80;;
59089;SDS011;44878;50.102;18.982;2023-02-26T03:37:49;13.63;;;12.32;;
59089;SDS011;44878;50.102;18.982;2023-02-26T03:40:24;12.57;;;11.37;;
59089;SDS011;44878;50.102;18.982;2023-02-26T03:43:10;12.07;;;10.87;;
59089;SDS011;44878;50.102;18.982;2023-02-26T03:45:39;11.67;;;10.47;;
59089;SDS011;44878;50.102;18.982;2023-02-26T03:48:06;11.73;;;10.63;;
59089;SDS011;44878;50.102;18.982;2023-02-26T03:50:35;10.97;;;9.87;;
59089;SDS011;44878;50.102;18.982;2023-02-26T03:53:02;10.77;;;9.43;;
59089;SDS011;44878;50.102;18.982;2023-02-26T03:58:34;10.27;;;9.30;;
59089;SDS011;44878;50.102;18.982;2023-02-26T04:01:03;11.33;;;10.07;;
59089;SDS011;44878;50.102;18.982;2023-02-26T04:03:34;10.27;;;9.27;;
59089;SDS011;44878;50.102;18.982;2023-02-26T04:06:01;10.17;;;8.90;;
59089;SDS011;44878;50.102;18.982;2023-02-26T04:08:28;9.97;;;8.97;;
59089;SDS011;44878;50.102;18.982;2023-02-26T04:10:58;11.13;;;9.73;;
59089;SDS011;44878;50.102;18.982;2023-02-26T04:13:24;10.70;;;9.60;;
59089;SDS011;44878;50.102;18.982;2023-02-26T04:15:50;9.77;;;8.77;;
59089;SDS011;44878;50.102;18.982;2023-02-26T04:18:16;11.27;;;9.73;;
59089;SDS011;44878;50.102;18.982;2023-02-26T04:20:42;10.73;;;9.63;;
59089;SDS011;44878;50.102;18.982;2023-02-26T04:23:08;10.17;;;9.07;;
59089;SDS011;44878;50.102;18.982;2023-02-26T04:25:34;10.63;;;8.73;;
59089;SDS011;44878;50.102;18.982;2023-02-26T04:27:59;12.70;;;9.93;;
59089;SDS011;44878;50.102;18.982;2023-02-26T04:30:25;11.87;;;10.53;;
59089;SDS011;44878;50.102;18.982;2023-02-26T04:32:51;11.33;;;10.13;;
59089;SDS011;44878;50.102;18.982;2023-02-26T04:35:17;12.33;;;11.03;;
59089;SDS011;44878;50.102;18.982;2023-02-26T04:37:43;12.13;;;10.20;;
59089;SDS011;44878;50.102;18.982;2023-02-26T04:40:09;11.20;;;10.00;;
59089;SDS011;44878;50.102;18.982;2023-02-26T04:42:35;11.27;;;9.47;;
59089;SDS011;44878;50.102;18.982;2023-02-26T04:45:02;10.77;;;9.00;;
59089;SDS011;44878;50.102;18.982;2023-02-26T04:47:28;12.17;;;8.97;;
59089;SDS011;44878;50.102;18.982;2023-02-26T04:49:54;10.20;;;8.83;;
59089;SDS011;44878;50.102;18.982;2023-02-26T04:52:19;10.70;;;9.13;;
59089;SDS011;44878;50.102;18.982;2023-02-26T04:54:46;9.57;;;7.90;;
59089;SDS011;44878;50.102;18.982;2023-02-26T04:57:11;10.30;;;7.83;;
59089;SDS011;44878;50.102;18.982;2023-02-26T04:59:37;10.23;;;7.33;;
59089;SDS011;44878;50.102;18.982;2023-02-26T05:02:03;9.17;;;7.37;;
59089;SDS011;44878;50.102;18.982;2023-02-26T05:04:30;9.52;;;7.60;;
59089;SDS011;44878;50.102;18.982;2023-02-26T05:06:56;10.63;;;7.60;;
59089;SDS011;44878;50.102;18.982;2023-02-26T05:09:22;10.13;;;8.23;;
59089;SDS011;44878;50.102;18.982;2023-02-26T05:11:48;10.20;;;8.93;;
59089;SDS011;44878;50.102;18.982;2023-02-26T05:14:14;11.73;;;8.77;;
59089;SDS011;44878;50.102;18.982;2023-02-26T05:16:40;12.70;;;9.10;;
59089;SDS011;44878;50.102;18.982;2023-02-26T05:19:06;11.70;;;9.23;;
59089;SDS011;44878;50.102;18.982;2023-02-26T05:21:32;10.10;;;8.93;;
59089;SDS011;44878;50.102;18.982;2023-02-26T05:23:58;11.33;;;9.27;;
59089;SDS011;44878;50.102;18.982;2023-02-26T05:26:23;11.40;;;9.53;;
59089;SDS011;44878;50.102;18.982;2023-02-26T05:28:49;11.67;;;9.60;;
59089;SDS011;44878;50.102;18.982;2023-02-26T05:31:15;13.23;;;10.30;;
59089;SDS011;44878;50.102;18.982;2023-02-26T05:33:41;15.80;;;11.07;;
59089;SDS011;44878;50.102;18.982;2023-02-26T05:36:07;15.27;;;11.43;;
59089;SDS011;44878;50.102;18.982;2023-02-26T05:38:34;12.87;;;11.47;;
59089;SDS011;44878;50.102;18.982;2023-02-26T05:41:00;15.57;;;12.93;;
59089;SDS011;44878;50.102;18.982;2023-02-26T05:43:26;15.50;;;13.80;;
59089;SDS011;44878;50.102;18.982;2023-02-26T05:45:52;15.43;;;12.23;;
59089;SDS011;44878;50.102;18.982;2023-02-26T05:48:18;15.67;;;14.07;;
59089;SDS011;44878;50.102;18.982;2023-02-26T05:50:45;15.13;;;12.37;;
59089;SDS011;44878;50.102;18.982;2023-02-26T05:53:11;15.43;;;12.23;;
59089;SDS011;44878;50.102;18.982;2023-02-26T05:55:37;14.43;;;12.97;;
59089;SDS011;44878;50.102;18.982;2023-02-26T05:58:03;14.37;;;12.80;;
59089;SDS011;44878;50.102;18.982;2023-02-26T06:00:28;14.57;;;13.07;;
59089;SDS011;44878;50.102;18.982;2023-02-26T06:02:55;13.40;;;12.00;;
59089;SDS011;44878;50.102;18.982;2023-02-26T06:05:21;14.13;;;12.67;;
59089;SDS011;44878;50.102;18.982;2023-02-26T06:07:47;13.77;;;12.37;;
59089;SDS011;44878;50.102;18.982;2023-02-26T06:10:13;14.13;;;12.67;;
59089;SDS011;44878;50.102;18.982;2023-02-26T06:12:39;13.40;;;12.13;;
59089;SDS011;44878;50.102;18.982;2023-02-26T06:15:05;14.00;;;12.53;;
59089;SDS011;44878;50.102;18.982;2023-02-26T06:17:32;13.63;;;12.23;;
59089;SDS011;44878;50.102;18.982;2023-02-26T06:19:58;14.27;;;11.87;;
59089;SDS011;44878;50.102;18.982;2023-02-26T06:22:24;12.60;;;11.30;;
59089;SDS011;44878;50.102;18.982;2023-02-26T06:24:50;13.07;;;10.57;;
59089;SDS011;44878;50.102;18.982;2023-02-26T06:27:16;14.17;;;12.33;;
59089;SDS011;44878;50.102;18.982;2023-02-26T06:29:42;12.17;;;10.87;;
59089;SDS011;44878;50.102;18.982;2023-02-26T06:32:08;11.63;;;10.43;;
59089;SDS011;44878;50.102;18.982;2023-02-26T06:34:33;13.63;;;10.73;;
59089;SDS011;44878;50.102;18.982;2023-02-26T06:36:59;12.00;;;10.70;;
59089;SDS011;44878;50.102;18.982;2023-02-26T06:39:25;13.53;;;11.50;;
59089;SDS011;44878;50.102;18.982;2023-02-26T06:41:51;12.80;;;11.17;;
59089;SDS011;44878;50.102;18.982;2023-02-26T06:44:17;11.90;;;10.60;;
59089;SDS011;44878;50.102;18.982;2023-02-26T06:46:43;11.87;;;10.43;;
59089;SDS011;44878;50.102;18.982;2023-02-26T06:49:09;13.33;;;11.93;;
59089;SDS011;44878;50.102;18.982;2023-02-26T06:51:35;14.27;;;12.60;;
59089;SDS011;44878;50.102;18.982;2023-02-26T06:54:00;12.50;;;10.63;;
59089;SDS011;44878;50.102;18.982;2023-02-26T06:56:26;13.73;;;11.97;;
59089;SDS011;44878;50.102;18.982;2023-02-26T06:58:52;12.33;;;10.30;;
59089;SDS011;44878;50.102;18.982;2023-02-26T07:01:18;12.67;;;10.77;;
59089;SDS011;44878;50.102;18.982;2023-02-26T07:03:44;12.37;;;10.60;;
59089;SDS011;44878;50.102;18.982;2023-02-26T07:06:10;12.27;;;9.73;;
59089;SDS011;44878;50.102;18.982;2023-02-26T07:08:37;12.00;;;9.03;;
59089;SDS011;44878;50.102;18.982;2023-02-26T07:11:03;12.43;;;9.67;;
59089;SDS011;44878;50.102;18.982;2023-02-26T07:13:29;10.60;;;8.83;;
59089;SDS011;44878;50.102;18.982;2023-02-26T07:15:55;12.17;;;9.23;;
59089;SDS011;44878;50.102;18.982;2023-02-26T07:18:21;9.25;;;7.75;;
59089;SDS011;44878;50.102;18.982;2023-02-26T07:20:48;11.97;;;7.60;;
59089;SDS011;44878;50.102;18.982;2023-02-26T07:23:14;10.13;;;7.70;;
59089;SDS011;44878;50.102;18.982;2023-02-26T07:25:40;10.70;;;8.03;;
59089;SDS011;44878;50.102;18.982;2023-02-26T07:28:06;11.50;;;9.10;;
59089;SDS011;44878;50.102;18.982;2023-02-26T07:30:32;8.33;;;7.40;;
59089;SDS011;44878;50.102;18.982;2023-02-26T07:32:57;9.80;;;7.70;;
59089;SDS011;44878;50.102;18.982;2023-02-26T07:35:24;11.13;;;8.63;;
59089;SDS011;44878;50.102;18.982;2023-02-26T07:37:49;9.63;;;8.53;;
59089;SDS011;44878;50.102;18.982;2023-02-26T07:40:17;10.30;;;8.05;;
59089;SDS011;44878;50.102;18.982;2023-02-26T07:42:43;9.65;;;8.05;;
59089;SDS011;44878;50.102;18.982;2023-02-26T07:45:09;9.52;;;7.40;;
59089;SDS011;44878;50.102;18.982;2023-02-26T07:47:35;10.43;;;7.20;;
59089;SDS011;44878;50.102;18.982;2023-02-26T07:50:02;9.75;;;6.60;;
59089;SDS011;44878;50.102;18.982;2023-02-26T07:52:28;9.23;;;6.70;;
59089;SDS011;44878;50.102;18.982;2023-02-26T07:54:54;8.65;;;6.55;;
59089;SDS011;44878;50.102;18.982;2023-02-26T07:57:19;8.65;;;6.50;;
59089;SDS011;44878;50.102;18.982;2023-02-26T07:59:46;8.23;;;6.60;;
59089;SDS011;44878;50.102;18.982;2023-02-26T08:02:12;8.65;;;5.90;;
59089;SDS011;44878;50.102;18.982;2023-02-26T08:04:38;10.05;;;6.47;;
59089;SDS011;44878;50.102;18.982;2023-02-26T08:07:04;8.02;;;6.53;;
59089;SDS011;44878;50.102;18.982;2023-02-26T08:09:30;8.18;;;6.10;;
59089;SDS011;44878;50.102;18.982;2023-02-26T08:11:56;7.97;;;6.25;;
59089;SDS011;44878;50.102;18.982;2023-02-26T08:14:23;7.78;;;6.75;;
59089;SDS011;44878;50.102;18.982;2023-02-26T08:16:51;8.50;;;6.65;;
59089;SDS011;44878;50.102;18.982;2023-02-26T08:19:17;8.20;;;6.25;;
59089;SDS011;44878;50.102;18.982;2023-02-26T08:21:43;8.25;;;6.78;;
59089;SDS011;44878;50.102;18.982;2023-02-26T08:24:10;8.07;;;6.85;;
59089;SDS011;44878;50.102;18.982;2023-02-26T08:26:36;7.05;;;6.30;;
59089;SDS011;44878;50.102;18.982;2023-02-26T08:29:02;8.10;;;5.40;;
59089;SDS011;44878;50.102;18.982;2023-02-26T08:31:28;7.30;;;6.00;;
59089;SDS011;44878;50.102;18.982;2023-02-26T08:36:22;6.90;;;5.38;;
59089;SDS011;44878;50.102;18.982;2023-02-26T08:38:48;7.60;;;5.90;;
59089;SDS011;44878;50.102;18.982;2023-02-26T08:41:14;7.38;;;5.82;;
59089;SDS011;44878;50.102;18.982;2023-02-26T08:43:40;8.15;;;6.20;;
59089;SDS011;44878;50.102;18.982;2023-02-26T08:46:06;7.32;;;5.85;;
59089;SDS011;44878;50.102;18.982;2023-02-26T08:48:32;8.13;;;6.10;;
59089;SDS011;44878;50.102;18.982;2023-02-26T08:50:57;8.30;;;6.30;;
59089;SDS011;44878;50.102;18.982;2023-02-26T08:53:24;6.47;;;4.90;;
59089;SDS011;44878;50.102;18.982;2023-02-26T08:55:50;5.68;;;4.03;;
59089;SDS011;44878;50.102;18.982;2023-02-26T08:58:16;6.87;;;4.57;;
59089;SDS011;44878;50.102;18.982;2023-02-26T09:00:42;8.40;;;4.90;;
59089;SDS011;44878;50.102;18.982;2023-02-26T09:03:08;8.07;;;6.13;;
59089;SDS011;44878;50.102;18.982;2023-02-26T09:05:34;7.77;;;5.30;;
59089;SDS011;44878;50.102;18.982;2023-02-26T09:08:01;7.30;;;5.30;;
59089;SDS011;44878;50.102;18.982;2023-02-26T09:10:27;6.10;;;4.10;;
59089;SDS011;44878;50.102;18.982;2023-02-26T09:12:53;6.30;;;4.70;;
59089;SDS011;44878;50.102;18.982;2023-02-26T09:15:18;6.57;;;4.60;;
59089;SDS011;44878;50.102;18.982;2023-02-26T09:17:45;9.23;;;7.17;;
59089;SDS011;44878;50.102;18.982;2023-02-26T09:20:11;6.70;;;5.73;;
59089;SDS011;44878;50.102;18.982;2023-02-26T09:22:38;8.45;;;6.00;;
59089;SDS011;44878;50.102;18.982;2023-02-26T09:25:04;7.53;;;5.97;;
59089;SDS011;44878;50.102;18.982;2023-02-26T09:27:30;7.80;;;5.90;;
59089;SDS011;44878;50.102;18.982;2023-02-26T09:29:56;8.50;;;6.43;;
59089;SDS011;44878;50.102;18.982;2023-02-26T09:32:22;9.10;;;7.13;;
59089;SDS011;44878;50.102;18.982;2023-02-26T09:34:49;7.67;;;6.13;;
59089;SDS011;44878;50.102;18.982;2023-02-26T09:37:15;7.63;;;6.50;;
59089;SDS011;44878;50.102;18.982;2023-02-26T09:39:41;9.30;;;7.50;;
59089;SDS011;44878;50.102;18.982;2023-02-26T09:42:11;8.53;;;5.90;;
59089;SDS011;44878;50.102;18.982;2023-02-26T09:44:40;6.97;;;5.63;;
59089;SDS011;44878;50.102;18.982;2023-02-26T09:47:11;6.93;;;6.20;;
59089;SDS011;44878;50.102;18.982;2023-02-26T09:54:44;9.80;;;8.27;;
59089;SDS011;44878;50.102;18.982;2023-02-26T09:57:14;9.93;;;7.63;;
59089;SDS011;44878;50.102;18.982;2023-02-26T09:59:41;10.07;;;7.50;;
59089;SDS011;44878;50.102;18.982;2023-02-26T10:04:43;10.67;;;7.63;;
59089;SDS011;44878;50.102;18.982;2023-02-26T10:09:52;15.93;;;14.23;;
59089;SDS011;44878;50.102;18.982;2023-02-26T10:12:23;18.77;;;16.63;;
59089;SDS011;44878;50.102;18.982;2023-02-26T10:18:39;10.27;;;7.00;;
59089;SDS011;44878;50.102;18.982;2023-02-26T10:20:52;7.33;;;5.80;;
59089;SDS011;44878;50.102;18.982;2023-02-26T10:25:50;10.03;;;6.00;;
59089;SDS011;44878;50.102;18.982;2023-02-26T10:35:51;7.77;;;6.00;;
59089;SDS011;44878;50.102;18.982;2023-02-26T10:38:19;7.47;;;5.63;;
59089;SDS011;44878;50.102;18.982;2023-02-26T10:40:58;7.83;;;5.33;;
59089;SDS011;44878;50.102;18.982;2023-02-26T10:43:34;7.57;;;5.00;;
59089;SDS011;44878;50.102;18.982;2023-02-26T10:51:22;6.90;;;4.93;;
59089;SDS011;44878;50.102;18.982;2023-02-26T10:53:51;7.37;;;5.90;;
59089;SDS011;44878;50.102;18.982;2023-02-26T10:56:32;9.30;;;7.60;;
59089;SDS011;44878;50.102;18.982;2023-02-26T10:58:58;9.17;;;8.27;;
59089;SDS011;44878;50.102;18.982;2023-02-26T11:01:25;10.63;;;9.47;;
59089;SDS011;44878;50.102;18.982;2023-02-26T11:04:33;10.75;;;9.68;;
59089;SDS011;44878;50.102;18.982;2023-02-26T11:06:44;10.93;;;8.90;;
59089;SDS011;44878;50.102;18.982;2023-02-26T11:09:22;9.30;;;7.93;;
59089;SDS011;44878;50.102;18.982;2023-02-26T11:12:00;44.55;;;34.72;;
59089;SDS011;44878;50.102;18.982;2023-02-26T11:14:29;11.83;;;9.03;;
59089;SDS011;44878;50.102;18.982;2023-02-26T11:16:57;8.75;;;7.53;;
59089;SDS011;44878;50.102;18.982;2023-02-26T11:19:30;10.05;;;8.02;;
59089;SDS011;44878;50.102;18.982;2023-02-26T11:21:58;9.30;;;6.30;;
59089;SDS011;44878;50.102;18.982;2023-02-26T11:24:29;8.25;;;5.88;;
59089;SDS011;44878;50.102;18.982;2023-02-26T11:26:57;6.80;;;5.10;;
59089;SDS011;44878;50.102;18.982;2023-02-26T11:29:24;10.07;;;5.90;;
59089;SDS011;44878;50.102;18.982;2023-02-26T11:31:52;8.33;;;6.70;;
59089;SDS011;44878;50.102;18.982;2023-02-26T11:34:23;8.30;;;7.40;;
59089;SDS011;44878;50.102;18.982;2023-02-26T11:36:49;8.03;;;6.87;;
59089;SDS011;44878;50.102;18.982;2023-02-26T11:39:26;9.15;;;7.63;;
59089;SDS011;44878;50.102;18.982;2023-02-26T11:41:55;8.73;;;7.50;;
59089;SDS011;44878;50.102;18.982;2023-02-26T11:44:32;10.03;;;7.87;;
59089;SDS011;44878;50.102;18.982;2023-02-26T11:46:58;10.07;;;8.27;;
59089;SDS011;44878;50.102;18.982;2023-02-26T11:49:27;11.53;;;8.70;;
59089;SDS011;44878;50.102;18.982;2023-02-26T11:54:54;10.37;;;8.63;;
59089;SDS011;44878;50.102;18.982;2023-02-26T11:57:24;10.47;;;8.57;;
59089;SDS011;44878;50.102;18.982;2023-02-26T11:59:52;10.20;;;8.43;;
59089;SDS011;44878;50.102;18.982;2023-02-26T12:02:20;13.60;;;12.17;;
59089;SDS011;44878;50.102;18.982;2023-02-26T12:04:49;12.40;;;10.83;;
59089;SDS011;44878;50.102;18.982;2023-02-26T12:07:17;8.23;;;5.47;;
59089;SDS011;44878;50.102;18.982;2023-02-26T12:09:44;6.93;;;5.38;;
59089;SDS011;44878;50.102;18.982;2023-02-26T12:14:52;7.13;;;5.53;;
59089;SDS011;44878;50.102;18.982;2023-02-26T12:20:12;8.00;;;6.20;;
59089;SDS011;44878;50.102;18.982;2023-02-26T12:22:47;6.38;;;5.28;;
59089;SDS011;44878;50.102;18.982;2023-02-26T12:38:25;17.23;;;13.13;;
59089;SDS011;44878;50.102;18.982;2023-02-26T12:48:43;9.83;;;7.10;;
59089;SDS011;44878;50.102;18.982;2023-02-26T12:56:37;7.73;;;6.30;;
59089;SDS011;44878;50.102;18.982;2023-02-26T13:17:37;12.30;;;11.00;;
59089;SDS011;44878;50.102;18.982;2023-02-26T13:20:39;14.33;;;11.10;;
59089;SDS011;44878;50.102;18.982;2023-02-26T13:22:59;13.57;;;11.27;;
59089;SDS011;44878;50.102;18.982;2023-02-26T13:27:52;12.50;;;11.20;;
59089;SDS011;44878;50.102;18.982;2023-02-26T13:32:51;12.93;;;10.07;;
59089;SDS011;44878;50.102;18.982;2023-02-26T13:35:30;12.87;;;10.77;;
59089;SDS011;44878;50.102;18.982;2023-02-26T13:37:57;12.73;;;10.03;;
59089;SDS011;44878;50.102;18.982;2023-02-26T13:45:47;12.77;;;11.10;;
59089;SDS011;44878;50.102;18.982;2023-02-26T13:48:26;14.25;;;11.30;;
59089;SDS011;44878;50.102;18.982;2023-02-26T13:56:07;14.03;;;12.63;;
59089;SDS011;44878;50.102;18.982;2023-02-26T13:58:42;14.03;;;11.77;;
59089;SDS011;44878;50.102;18.982;2023-02-26T14:01:16;15.80;;;14.13;;
59089;SDS011;44878;50.102;18.982;2023-02-26T14:03:50;14.97;;;13.17;;
59089;SDS011;44878;50.102;18.982;2023-02-26T14:11:56;14.93;;;13.33;;
59089;SDS011;44878;50.102;18.982;2023-02-26T14:14:29;14.17;;;12.67;;
59089;SDS011;44878;50.102;18.982;2023-02-26T14:19:33;15.93;;;13.90;;
59089;SDS011;44878;50.102;18.982;2023-02-26T14:22:22;15.13;;;13.53;;
59089;SDS011;44878;50.102;18.982;2023-02-26T14:24:53;15.57;;;13.90;;
59089;SDS011;44878;50.102;18.982;2023-02-26T14:32:29;18.47;;;16.40;;
59089;SDS011;44878;50.102;18.982;2023-02-26T14:34:59;18.95;;;16.02;;
59089;SDS011;44878;50.102;18.982;2023-02-26T14:37:27;18.23;;;16.30;;
59089;SDS011;44878;50.102;18.982;2023-02-26T14:39:55;18.73;;;16.77;;
59089;SDS011;44878;50.102;18.982;2023-02-26T14:42:42;15.00;;;13.40;;
59089;SDS011;44878;50.102;18.982;2023-02-26T14:47:42;16.70;;;14.93;;
59089;SDS011;44878;50.102;18.982;2023-02-26T14:50:17;16.05;;;14.15;;
59089;SDS011;44878;50.102;18.982;2023-02-26T14:52:48;16.67;;;14.80;;
59089;SDS011;44878;50.102;18.982;2023-02-26T15:13:42;15.03;;;13.43;;
59089;SDS011;44878;50.102;18.982;2023-02-26T15:16:22;14.53;;;12.27;;
59089;SDS011;44878;50.102;18.982;2023-02-26T15:19:55;14.35;;;12.82;;
59089;SDS011;44878;50.102;18.982;2023-02-26T15:22:02;16.13;;;14.43;;
59089;SDS011;44878;50.102;18.982;2023-02-26T15:24:32;17.48;;;15.50;;
59089;SDS011;44878;50.102;18.982;2023-02-26T15:27:00;17.70;;;15.80;;
59089;SDS011;44878;50.102;18.982;2023-02-26T15:29:28;19.67;;;17.58;;
59089;SDS011;44878;50.102;18.982;2023-02-26T15:31:57;19.13;;;17.13;;
59089;SDS011;44878;50.102;18.982;2023-02-26T15:34:27;18.33;;;16.33;;
59089;SDS011;44878;50.102;18.982;2023-02-26T15:36:56;17.23;;;15.43;;
59089;SDS011;44878;50.102;18.982;2023-02-26T15:39:26;16.07;;;13.90;;
59089;SDS011;44878;50.102;18.982;2023-02-26T15:41:54;17.33;;;14.83;;
59089;SDS011;44878;50.102;18.982;2023-02-26T15:44:28;15.77;;;14.07;;
59089;SDS011;44878;50.102;18.982;2023-02-26T15:46:57;15.20;;;13.23;;
59089;SDS011;44878;50.102;18.982;2023-02-26T15:51:51;15.10;;;12.70;;
59089;SDS011;44878;50.102;18.982;2023-02-26T15:54:19;15.63;;;12.83;;
59089;SDS011;44878;50.102;18.982;2023-02-26T15:56:46;14.03;;;12.53;;
59089;SDS011;44878;50.102;18.982;2023-02-26T15:59:15;12.93;;;11.43;;
59089;SDS011;44878;50.102;18.982;2023-02-26T16:01:43;14.57;;;11.93;;
59089;SDS011;44878;50.102;18.982;2023-02-26T16:04:12;14.87;;;11.40;;
59089;SDS011;44878;50.102;18.982;2023-02-26T16:06:40;14.30;;;11.70;;
59089;SDS011;44878;50.102;18.982;2023-02-26T16:09:07;15.27;;;11.82;;
59089;SDS011;44878;50.102;18.982;2023-02-26T16:11:35;14.57;;;12.87;;
59089;SDS011;44878;50.102;18.982;2023-02-26T16:14:03;14.77;;;12.43;;
59089;SDS011;44878;50.102;18.982;2023-02-26T16:16:49;15.65;;;12.93;;
59089;SDS011;44878;50.102;18.982;2023-02-26T16:19:17;14.43;;;11.63;;
59089;SDS011;44878;50.102;18.982;2023-02-26T16:21:45;15.80;;;12.80;;
59089;SDS011;44878;50.102;18.982;2023-02-26T16:24:16;15.17;;;13.50;;
59089;SDS011;44878;50.102;18.982;2023-02-26T16:26:48;18.03;;;16.10;;
59089;SDS011;44878;50.102;18.982;2023-02-26T16:29:17;18.57;;;16.63;;
59089;SDS011;44878;50.102;18.982;2023-02-26T16:31:46;18.27;;;16.23;;
59089;SDS011;44878;50.102;18.982;2023-02-26T16:38:09;19.93;;;17.97;;
59089;SDS011;44878;50.102;18.982;2023-02-26T16:45:53;19.63;;;16.80;;
59089;SDS011;44878;50.102;18.982;2023-02-26T16:48:21;18.67;;;16.77;;
59089;SDS011;44878;50.102;18.982;2023-02-26T16:50:55;19.07;;;17.10;;
59089;SDS011;44878;50.102;18.982;2023-02-26T16:53:23;22.43;;;20.33;;
59089;SDS011;44878;50.102;18.982;2023-02-26T16:55:56;19.47;;;17.57;;
59089;SDS011;44878;50.102;18.982;2023-02-26T16:58:24;24.30;;;21.93;;
59089;SDS011;44878;50.102;18.982;2023-02-26T17:00:55;22.38;;;19.95;;
59089;SDS011;44878;50.102;18.982;2023-02-26T17:03:24;19.63;;;17.43;;
59089;SDS011;44878;50.102;18.982;2023-02-26T17:06:05;17.20;;;14.85;;
59089;SDS011;44878;50.102;18.982;2023-02-26T17:08:47;21.67;;;19.63;;
59089;SDS011;44878;50.102;18.982;2023-02-26T17:11:21;17.80;;;15.93;;
59089;SDS011;44878;50.102;18.982;2023-02-26T17:16:34;19.13;;;17.03;;
59089;SDS011;44878;50.102;18.982;2023-02-26T17:19:01;20.00;;;17.95;;
59089;SDS011;44878;50.102;18.982;2023-02-26T17:21:28;19.93;;;17.80;;
59089;SDS011;44878;50.102;18.982;2023-02-26T17:23:55;22.60;;;20.30;;
59089;SDS011;44878;50.102;18.982;2023-02-26T17:26:23;24.13;;;21.80;;
59089;SDS011;44878;50.102;18.982;2023-02-26T17:28:50;54.08;;;48.53;;
59089;SDS011;44878;50.102;18.982;2023-02-26T17:31:17;25.13;;;22.63;;